Wetterdaten: aktuell Sonntag, 17.10.2021 05:15
Datum Zeit Temp. A. CO2 I. Feuchte A. Bat. A. Luftdruck Regen Wind Richtung Richtung Taupunkt Windchill Windben
17.10.2021 05:15 6,6 C 403 ppm 92 % 100 % 1018,4 hPa 0,0 l/m 1,0 km/h W 270 5,4 C 6,6 C 6,0 km/h
17.10.2021 05:05 6,4 C 409 ppm 92 % 100 % 1018,5 hPa 0,0 l/m 2,0 km/h W-NW 299 5,2 C 6,4 C 7,5 km/h
17.10.2021 04:55 6,1 C 411 ppm 93 % 100 % 1018,5 hPa 0,0 l/m 1,0 km/h W 270 5,1 C 6,1 C 4,5 km/h
17.10.2021 04:35 5,6 C 414 ppm 93 % 100 % 1018,7 hPa 0,0 l/m 1,0 km/h NW 315 4,6 C 5,6 C 4,5 km/h
17.10.2021 04:25 5,5 C 397 ppm 92 % 100 % 1018,8 hPa 0,0 l/m 1,0 km/h W 270 4,3 C 5,5 C 4,5 km/h
17.10.2021 04:15 5,4 C 411 ppm 92 % 100 % 1018,9 hPa 0,0 l/m 1,0 km/h NW 315 4,2 C 5,4 C 3,0 km/h
17.10.2021 04:05 5,3 C 419 ppm 92 % 100 % 1019,0 hPa 0,0 l/m 0,0 km/h N 0 4,1 C 5,3 C 3,0 km/h
17.10.2021 03:55 5,1 C 408 ppm 92 % 100 % 1019,0 hPa 0,0 l/m 0,0 km/h N 0 3,9 C 5,1 C 3,0 km/h
17.10.2021 03:45 5,0 C 398 ppm 92 % 100 % 1019,0 hPa 0,0 l/m 1,0 km/h W 270 3,8 C 5,0 C 3,0 km/h
17.10.2021 03:35 4,8 C 392 ppm 92 % 100 % 1019,1 hPa 0,0 l/m 1,0 km/h N-NW 327 3,6 C 4,8 C 3,0 km/h
17.10.2021 03:25 4,7 C 411 ppm 92 % 100 % 1019,2 hPa 0,0 l/m 1,0 km/h N-NW 327 3,5 C 4,7 C 3,0 km/h
17.10.2021 03:15 4,7 C 392 ppm 91 % 100 % 1019,3 hPa 0,0 l/m 1,0 km/h N-NW 338 3,4 C 4,7 C 3,0 km/h
17.10.2021 03:05 4,8 C 404 ppm 91 % 100 % 1019,3 hPa 0,0 l/m 1,0 km/h NW 318 3,5 C 4,8 C 3,0 km/h
17.10.2021 02:55 4,9 C 404 ppm 89 % 100 % 1019,3 hPa 0,0 l/m 0,0 km/h N 0 3,2 C 4,9 C 1,5 km/h
17.10.2021 02:45 5,1 C 386 ppm 89 % 100 % 1019,3 hPa 0,0 l/m 1,0 km/h N-NW 341 3,4 C 5,1 C 3,0 km/h
17.10.2021 02:35 5,2 C 389 ppm 89 % 100 % 1019,3 hPa 0,0 l/m 1,0 km/h N-NW 341 3,5 C 5,2 C 3,0 km/h
17.10.2021 02:26 5,4 C 398 ppm 89 % 100 % 1019,3 hPa 0,0 l/m 1,0 km/h N 351 3,7 C 5,4 C 3,0 km/h
17.10.2021 02:15 5,5 C 423 ppm 89 % 100 % 1019,3 hPa 0,0 l/m 1,0 km/h N-NW 330 3,8 C 5,5 C 3,0 km/h
17.10.2021 02:05 5,6 C 403 ppm 88 % 100 % 1019,2 hPa 0,0 l/m 1,0 km/h NW 325 3,8 C 5,6 C 3,0 km/h
17.10.2021 01:55 5,7 C 389 ppm 88 % 100 % 1019,2 hPa 0,0 l/m 1,0 km/h NW 315 3,9 C 5,7 C 6,0 km/h
17.10.2021 01:45 5,8 C 392 ppm 87 % 100 % 1019,2 hPa 0,0 l/m 1,0 km/h NW 310 3,8 C 5,8 C 4,5 km/h
17.10.2021 01:35 5,9 C 408 ppm 86 % 100 % 1019,2 hPa 0,0 l/m 1,0 km/h N-NW 329 3,7 C 5,9 C 3,0 km/h
17.10.2021 01:25 6,1 C 386 ppm 85 % 100 % 1019,1 hPa 0,0 l/m 0,0 km/h N 0 3,8 C 6,1 C 3,0 km/h
17.10.2021 01:15 6,3 C 392 ppm 85 % 100 % 1019,2 hPa 0,0 l/m 1,0 km/h NW 315 4,0 C 6,3 C 3,0 km/h
17.10.2021 01:05 6,4 C 398 ppm 85 % 100 % 1019,2 hPa 0,0 l/m 1,0 km/h NW 321 4,1 C 6,4 C 4,5 km/h
17.10.2021 00:55 6,6 C 409 ppm 85 % 100 % 1019,2 hPa 0,0 l/m 2,0 km/h NW 315 4,3 C 6,6 C 6,0 km/h
17.10.2021 00:45 6,9 C 392 ppm 83 % 100 % 1019,2 hPa 0,0 l/m 1,0 km/h N-NW 330 4,2 C 6,9 C 3,0 km/h
17.10.2021 00:35 7,2 C 386 ppm 83 % 100 % 1019,3 hPa 0,0 l/m 0,0 km/h N 0 4,5 C 7,2 C 1,5 km/h
17.10.2021 00:25 7,5 C 389 ppm 82 % 100 % 1019,4 hPa 0,0 l/m 0,0 km/h N 0 4,6 C 7,5 C 3,0 km/h
17.10.2021 00:15 7,9 C 389 ppm 82 % 100 % 1019,5 hPa 0,0 l/m 1,0 km/h NW 315 5,0 C 7,9 C 3,0 km/h
17.10.2021 00:05 8,1 C 392 ppm 82 % 100 % 1019,6 hPa 0,0 l/m 1,0 km/h NW 315 5,2 C 8,1 C 4,5 km/h
_ Min-Zeit 03:15 00:35 00:05 00:05 05:15 - 00:25 - - 02:55 03:15 00:35
Minimum _ 4,7 C 386 ppm 82 % 100 % 1018,4 hPa - 0,0 km/h - - 3,2 C 4,7 C 1,5 km/h
_ Max-Zeit 00:05 02:15 04:35 00:05 00:05 00:05 00:55 - - 05:15 00:05 05:05
Maximum _ 8,1 C 423 ppm 93 % 100 % 1019,6 hPa 0,0 l/m 2,0 km/h
NW
- - 5,4 C 8,1 C 7,5 km/h
N
Durchschnitt _ 5,8 C 400 ppm 89 % 100 % 1019,1 hPa #0,0 l/m 0,9 km/h W-NW - 4,1 C 5,8 C 3,6 km/h